Hereford, Hereford Municipal Airport (KHRX)

NameHereford Municipal Airport
CityHereford
CountryUnited States
ICAOKHRX
IATA
Altitude1155 m
CoordinatesGoogle Map
Live Air TrafficLiveATC.net
METARKHRX 091855Z AUTO 36003KT 7SM CLR 09/M03 A3034 RMK AO2 T00851030
2018-12-09 18:55:00 Wind: North (360°) 1.54 m/s - Visibility: 11265.38 m - Temperature: 9 °C - Dew point: -3 °C - Humidity: 43.1% - Pressure: 1027.43 hPa
Statistics

The table below shows the detailed information of all flights to/from Hereford, Hereford Municipal Airport (KHRX).